createdAt,value
2023-07-25T00:01:06.041Z,15.80
2023-07-25T00:03:33.359Z,15.80
2023-07-25T00:06:03.143Z,15.80
2023-07-25T00:08:30.261Z,15.80
2023-07-25T00:10:57.942Z,15.80
2023-07-25T00:13:25.327Z,15.70
2023-07-25T00:15:52.974Z,15.70
2023-07-25T00:18:20.020Z,15.70
2023-07-25T00:20:46.893Z,15.70
2023-07-25T00:23:15.271Z,15.70
2023-07-25T00:25:42.230Z,15.70
2023-07-25T00:28:09.213Z,15.70
2023-07-25T00:30:36.097Z,15.70
2023-07-25T00:33:03.177Z,15.70
2023-07-25T00:35:30.079Z,15.70
2023-07-25T00:37:57.036Z,15.70
2023-07-25T00:40:25.411Z,15.60
2023-07-25T00:42:55.412Z,15.60
2023-07-25T00:45:23.526Z,15.60
2023-07-25T00:47:51.168Z,15.60
2023-07-25T00:50:18.726Z,15.60
2023-07-25T00:53:11.070Z,15.50
2023-07-25T00:55:39.950Z,15.50
2023-07-25T00:58:06.986Z,15.50
2023-07-25T01:00:34.043Z,15.50
2023-07-25T01:03:01.310Z,15.50
2023-07-25T01:05:34.492Z,15.50
2023-07-25T01:08:02.106Z,15.40
2023-07-25T01:10:29.046Z,15.40
2023-07-25T01:12:57.613Z,15.40
2023-07-25T01:15:25.999Z,15.40
2023-07-25T01:17:53.435Z,15.40
2023-07-25T01:20:21.182Z,15.40
2023-07-25T01:22:50.630Z,15.40
2023-07-25T01:25:19.014Z,15.30
2023-07-25T01:27:46.072Z,15.30
2023-07-25T01:30:13.319Z,15.30
2023-07-25T01:32:40.474Z,15.30
2023-07-25T01:35:08.760Z,15.30
2023-07-25T01:37:35.917Z,15.30
2023-07-25T01:40:03.617Z,15.20
2023-07-25T01:42:32.450Z,15.20
2023-07-25T01:44:59.792Z,15.20
2023-07-25T01:47:27.243Z,15.20
2023-07-25T01:49:55.085Z,15.20
2023-07-25T01:52:23.168Z,15.20
2023-07-25T01:54:54.418Z,15.20
2023-07-25T01:57:21.533Z,15.20
2023-07-25T01:59:50.090Z,15.20
2023-07-25T02:02:17.017Z,15.20
2023-07-25T02:04:44.183Z,15.20
2023-07-25T02:07:11.369Z,15.20
2023-07-25T02:09:38.255Z,15.20
2023-07-25T02:12:07.621Z,15.30
2023-07-25T02:14:34.824Z,15.30
2023-07-25T02:17:03.409Z,15.30
2023-07-25T02:19:30.502Z,15.30
2023-07-25T02:21:57.623Z,15.30
2023-07-25T02:24:24.738Z,15.30
2023-07-25T02:26:51.936Z,15.30
2023-07-25T02:29:18.967Z,15.30
2023-07-25T02:31:45.980Z,15.30
2023-07-25T02:34:16.192Z,15.30
2023-07-25T02:36:43.330Z,15.30
2023-07-25T02:39:10.203Z,15.30
2023-07-25T02:41:37.456Z,15.30
2023-07-25T02:44:30.103Z,15.30
2023-07-25T02:46:57.159Z,15.30
2023-07-25T02:49:25.434Z,15.30
2023-07-25T02:51:52.682Z,15.30
2023-07-25T02:54:19.918Z,15.30
2023-07-25T02:56:46.986Z,15.30
2023-07-25T02:59:14.032Z,15.30
2023-07-25T03:01:41.208Z,15.20
2023-07-25T03:04:08.158Z,15.20
2023-07-25T03:06:36.814Z,15.30
2023-07-25T03:09:03.780Z,15.30
2023-07-25T03:11:31.620Z,15.30
2023-07-25T03:13:58.803Z,15.30
2023-07-25T03:16:26.054Z,15.30
2023-07-25T03:18:53.348Z,15.30
2023-07-25T03:21:20.291Z,15.30
2023-07-25T03:23:48.711Z,15.30
2023-07-25T03:26:15.869Z,15.30
2023-07-25T03:28:42.891Z,15.30
2023-07-25T03:31:10.027Z,15.30
2023-07-25T03:33:37.002Z,15.30
2023-07-25T03:36:05.504Z,15.30
2023-07-25T03:38:32.571Z,15.30
2023-07-25T03:41:01.078Z,15.30
2023-07-25T03:43:28.022Z,15.30
2023-07-25T03:45:55.155Z,15.30
2023-07-25T03:48:22.078Z,15.30
2023-07-25T03:50:49.201Z,15.30
2023-07-25T03:53:16.318Z,15.20
2023-07-25T03:55:43.389Z,15.20
2023-07-25T03:58:14.117Z,15.20
2023-07-25T04:00:41.318Z,15.10
2023-07-25T04:03:15.521Z,15.10
2023-07-25T04:05:43.794Z,15.10
2023-07-25T04:08:11.074Z,15.20
2023-07-25T04:10:38.151Z,15.20
2023-07-25T04:13:05.486Z,15.10
2023-07-25T04:15:33.810Z,15.20
2023-07-25T04:18:03.824Z,15.30
2023-07-25T04:20:33.629Z,15.40
2023-07-25T04:23:01.969Z,15.50
2023-07-25T04:25:29.019Z,15.60
2023-07-25T04:27:57.916Z,15.60
2023-07-25T04:30:25.241Z,15.70
2023-07-25T04:32:53.547Z,15.70
2023-07-25T04:35:20.762Z,15.80
2023-07-25T04:37:47.795Z,15.80
2023-07-25T04:40:15.008Z,15.80
2023-07-25T04:42:41.932Z,15.80
2023-07-25T04:45:11.354Z,15.80
2023-07-25T04:47:38.413Z,15.80
2023-07-25T04:50:07.706Z,15.80
2023-07-25T04:53:00.236Z,15.70
2023-07-25T04:55:27.474Z,15.70
2023-07-25T04:57:56.061Z,15.70
2023-07-25T05:00:23.433Z,15.70
2023-07-25T05:02:51.334Z,15.70
2023-07-25T05:05:20.982Z,15.70
2023-07-25T05:07:47.879Z,15.70
2023-07-25T05:10:15.006Z,15.70
2023-07-25T05:12:42.012Z,15.70
2023-07-25T05:15:09.643Z,15.80
2023-07-25T05:17:36.532Z,15.80
2023-07-25T05:20:04.272Z,15.80
2023-07-25T05:22:32.549Z,15.80
2023-07-25T05:24:59.479Z,15.90
2023-07-25T05:27:26.504Z,15.90
2023-07-25T05:29:53.511Z,15.90
2023-07-25T05:32:22.668Z,16.00
2023-07-25T05:34:50.057Z,16.00
2023-07-25T05:37:19.366Z,16.10
2023-07-25T05:39:47.742Z,16.10
2023-07-25T05:42:14.698Z,16.10
2023-07-25T05:44:41.839Z,16.20
2023-07-25T05:47:08.974Z,16.20
2023-07-25T05:49:35.840Z,16.30
2023-07-25T05:52:03.189Z,16.30
2023-07-25T05:54:30.204Z,16.40
2023-07-25T05:56:58.536Z,16.40
2023-07-25T06:02:16.902Z,16.50
2023-07-25T06:04:44.009Z,16.50
2023-07-25T06:10:02.775Z,16.60
2023-07-25T06:12:31.897Z,16.60
2023-07-25T06:14:59.048Z,16.70
2023-07-25T06:17:26.177Z,16.80
2023-07-25T06:19:53.196Z,16.80
2023-07-25T06:22:20.267Z,16.90
2023-07-25T06:24:48.116Z,17.00
2023-07-25T06:27:15.215Z,17.00
2023-07-25T06:29:43.420Z,17.10
2023-07-25T06:32:10.518Z,17.20
2023-07-25T06:34:37.411Z,17.30
2023-07-25T06:37:05.523Z,17.40
2023-07-25T06:39:32.522Z,17.70
2023-07-25T06:41:59.607Z,18.20
2023-07-25T06:44:29.160Z,18.90
2023-07-25T06:46:57.582Z,19.40
2023-07-25T06:49:24.595Z,19.90
2023-07-25T06:51:51.779Z,20.30
2023-07-25T06:54:18.832Z,20.70
2023-07-25T06:56:45.958Z,21.10
2023-07-25T06:59:13.359Z,21.50
2023-07-25T07:01:40.292Z,21.80
2023-07-25T07:04:08.714Z,22.10
2023-07-25T07:06:35.856Z,22.50
2023-07-25T07:09:02.997Z,22.80
2023-07-25T07:11:30.379Z,22.90
2023-07-25T07:13:57.574Z,21.90
2023-07-25T07:16:24.609Z,21.60
2023-07-25T07:18:51.955Z,22.00
2023-07-25T07:21:20.372Z,22.50
2023-07-25T07:23:47.802Z,23.20
2023-07-25T07:26:15.848Z,23.80
2023-07-25T07:28:43.655Z,23.70
2023-07-25T07:31:10.823Z,24.00
2023-07-25T07:33:37.915Z,23.60
2023-07-25T07:36:05.871Z,23.30
2023-07-25T07:38:34.188Z,23.10
2023-07-25T07:41:01.180Z,23.30
2023-07-25T07:43:28.348Z,23.30
2023-07-25T07:45:58.067Z,23.60
2023-07-25T07:48:25.287Z,23.90
2023-07-25T07:50:52.527Z,23.50
2023-07-25T07:53:19.506Z,23.40
2023-07-25T07:55:47.932Z,23.30
2023-07-25T07:58:14.889Z,23.10
2023-07-25T08:00:42.093Z,22.80
2023-07-25T08:03:09.185Z,22.40
2023-07-25T08:05:36.284Z,22.30
2023-07-25T08:08:10.313Z,22.50
2023-07-25T08:10:37.745Z,22.70
2023-07-25T08:13:06.390Z,22.70
2023-07-25T08:15:33.666Z,23.00
2023-07-25T08:18:00.839Z,23.30
2023-07-25T08:20:28.187Z,23.20
2023-07-25T08:22:55.239Z,23.20
2023-07-25T08:25:22.182Z,23.10
2023-07-25T08:27:49.281Z,22.80
2023-07-25T08:30:17.680Z,22.50
2023-07-25T08:32:45.252Z,23.60
2023-07-25T08:35:12.457Z,23.60
2023-07-25T08:37:39.318Z,25.40
2023-07-25T08:40:09.044Z,25.70
2023-07-25T08:42:38.316Z,26.70
2023-07-25T08:45:07.515Z,27.80
2023-07-25T08:47:41.185Z,29.10
2023-07-25T08:53:13.725Z,28.00
2023-07-25T08:55:41.826Z,27.00
2023-07-25T08:58:09.638Z,25.60
2023-07-25T09:00:37.284Z,24.50
2023-07-25T09:03:07.522Z,23.90
2023-07-25T09:05:34.939Z,23.50
2023-07-25T09:08:02.056Z,23.20
2023-07-25T09:10:30.064Z,23.20
2023-07-25T09:12:57.221Z,23.20
2023-07-25T09:15:24.685Z,23.10
2023-07-25T09:17:54.875Z,22.90
2023-07-25T09:20:24.339Z,22.60
2023-07-25T09:22:51.576Z,22.40
2023-07-25T09:25:18.696Z,22.20
2023-07-25T09:27:46.235Z,22.00
2023-07-25T09:30:14.881Z,22.10
2023-07-25T09:32:46.689Z,22.20
2023-07-25T09:35:14.069Z,22.30
2023-07-25T09:37:43.516Z,22.40
2023-07-25T09:40:12.542Z,23.00
2023-07-25T09:42:44.011Z,25.00
2023-07-25T09:45:13.108Z,25.70
2023-07-25T09:47:40.344Z,26.50
2023-07-25T09:50:08.187Z,25.80
2023-07-25T09:53:02.871Z,25.90
2023-07-25T09:55:29.849Z,25.60
2023-07-25T09:57:56.899Z,26.40
2023-07-25T10:00:24.355Z,28.40
2023-07-25T10:02:52.662Z,29.50
2023-07-25T10:05:20.682Z,28.20
2023-07-25T10:07:49.634Z,27.70
2023-07-25T10:10:19.143Z,27.40
2023-07-25T10:12:46.667Z,27.10
2023-07-25T10:15:14.219Z,27.10
2023-07-25T10:17:41.357Z,25.90
2023-07-25T10:20:11.704Z,25.30
2023-07-25T10:22:42.340Z,25.20
2023-07-25T10:25:11.138Z,25.70
2023-07-25T10:27:40.536Z,26.50
2023-07-25T10:30:23.790Z,27.70
2023-07-25T10:32:52.593Z,29.10
2023-07-25T10:35:40.392Z,30.30
2023-07-25T10:38:13.487Z,31.00
2023-07-25T10:40:58.177Z,31.70
2023-07-25T10:43:30.811Z,32.00
2023-07-25T10:46:01.855Z,32.10
2023-07-25T10:48:44.317Z,33.10
2023-07-25T10:51:11.841Z,34.50
2023-07-25T10:53:39.512Z,32.30
2023-07-25T10:56:18.008Z,30.90
2023-07-25T10:59:07.266Z,32.80
2023-07-25T11:01:43.474Z,32.40
2023-07-25T11:04:31.805Z,33.50
2023-07-25T11:07:10.527Z,33.70
2023-07-25T11:09:41.564Z,34.60
2023-07-25T11:12:11.061Z,35.10
2023-07-25T11:14:45.216Z,35.10
2023-07-25T11:17:15.282Z,34.60
2023-07-25T11:19:42.437Z,34.10
2023-07-25T11:22:11.537Z,33.10
2023-07-25T11:24:43.107Z,32.30
2023-07-25T11:27:10.500Z,33.10
2023-07-25T11:29:37.653Z,33.00
2023-07-25T11:32:07.957Z,33.70
2023-07-25T11:34:35.230Z,32.50
2023-07-25T11:37:10.573Z,33.00
2023-07-25T11:39:37.709Z,32.40
2023-07-25T11:42:07.711Z,32.10
2023-07-25T11:44:34.919Z,31.80
2023-07-25T11:47:02.337Z,30.70
2023-07-25T11:49:47.917Z,32.20
2023-07-25T11:52:18.189Z,30.50
2023-07-25T11:54:45.256Z,31.90
2023-07-25T11:57:12.849Z,32.60
2023-07-25T11:59:40.672Z,32.20
2023-07-25T12:02:08.800Z,30.90
2023-07-25T12:04:45.708Z,30.90
2023-07-25T12:07:13.661Z,29.60
2023-07-25T12:09:49.049Z,31.50
2023-07-25T12:12:16.506Z,32.50
2023-07-25T12:14:55.114Z,33.30
2023-07-25T12:17:22.207Z,32.80
2023-07-25T12:19:54.917Z,31.70
2023-07-25T12:22:21.972Z,31.60
2023-07-25T12:24:49.081Z,32.40
2023-07-25T12:27:18.065Z,33.70
2023-07-25T12:29:46.438Z,34.10
2023-07-25T12:32:13.985Z,33.80
2023-07-25T12:34:41.344Z,34.70
2023-07-25T12:37:09.696Z,34.80
2023-07-25T12:39:36.858Z,35.40
2023-07-25T12:42:04.569Z,35.80
2023-07-25T12:44:32.360Z,36.40
2023-07-25T12:46:59.680Z,37.00
2023-07-25T12:49:26.724Z,36.10
2023-07-25T12:51:53.885Z,36.50
2023-07-25T12:54:22.589Z,37.00
2023-07-25T12:56:49.695Z,36.50
2023-07-25T12:59:22.334Z,35.80
2023-07-25T13:01:50.166Z,34.50
2023-07-25T13:04:17.568Z,33.20
2023-07-25T13:06:45.563Z,34.20
2023-07-25T13:09:12.568Z,33.20
2023-07-25T13:11:41.251Z,34.00
2023-07-25T13:14:08.651Z,34.60
2023-07-25T13:16:35.873Z,34.90
2023-07-25T13:19:03.249Z,35.10
2023-07-25T13:21:31.275Z,34.80
2023-07-25T13:23:58.457Z,33.20
2023-07-25T13:26:25.813Z,33.90
2023-07-25T13:28:54.303Z,34.70
2023-07-25T13:31:21.394Z,33.90
2023-07-25T13:33:48.679Z,34.00
2023-07-25T13:36:15.809Z,34.10
2023-07-25T13:38:43.039Z,34.80
2023-07-25T13:41:10.421Z,35.20
2023-07-25T13:43:44.835Z,34.30
2023-07-25T13:46:15.539Z,33.70
2023-07-25T13:48:43.020Z,34.20
2023-07-25T13:51:10.423Z,35.00
2023-07-25T13:53:37.632Z,33.60
2023-07-25T13:56:05.371Z,34.90
2023-07-25T13:58:32.799Z,33.40
2023-07-25T14:01:00.622Z,31.70
2023-07-25T14:03:31.471Z,30.50
2023-07-25T14:05:58.834Z,30.50
2023-07-25T14:08:26.145Z,30.50
2023-07-25T14:10:53.210Z,31.30
2023-07-25T14:13:20.174Z,31.60
2023-07-25T14:15:47.261Z,31.10
2023-07-25T14:18:14.398Z,30.80
2023-07-25T14:20:42.901Z,31.00
2023-07-25T14:23:10.008Z,30.70
2023-07-25T14:25:37.215Z,31.10
2023-07-25T14:28:04.808Z,31.40
2023-07-25T14:30:32.049Z,31.90
2023-07-25T14:32:59.309Z,32.60
2023-07-25T14:35:26.760Z,33.20
2023-07-25T14:37:57.319Z,32.50
2023-07-25T14:40:26.429Z,33.30
2023-07-25T14:42:53.465Z,33.10
2023-07-25T14:45:20.638Z,31.80
2023-07-25T14:50:44.817Z,31.90
2023-07-25T14:53:13.326Z,30.70
2023-07-25T14:55:40.225Z,31.10
2023-07-25T14:58:09.823Z,31.90
2023-07-25T15:00:36.814Z,31.70
2023-07-25T15:03:04.679Z,31.60
2023-07-25T15:05:31.907Z,31.20
2023-07-25T15:07:59.494Z,30.70
2023-07-25T15:10:28.615Z,30.90
2023-07-25T15:12:55.946Z,30.60
2023-07-25T15:15:22.967Z,30.70
2023-07-25T15:17:49.962Z,30.70
2023-07-25T15:20:18.327Z,29.80
2023-07-25T15:22:45.245Z,29.80
2023-07-25T15:25:12.200Z,30.00
2023-07-25T15:27:40.482Z,30.10
2023-07-25T15:30:09.104Z,30.20
2023-07-25T15:32:36.098Z,30.30
2023-07-25T15:35:07.790Z,30.20
2023-07-25T15:37:34.579Z,30.10
2023-07-25T15:40:01.717Z,30.00
2023-07-25T15:42:30.112Z,29.70
2023-07-25T15:44:58.644Z,29.50
2023-07-25T15:47:25.734Z,29.40
2023-07-25T15:49:53.136Z,29.30
2023-07-25T15:52:20.332Z,29.10
2023-07-25T15:54:47.391Z,29.00
2023-07-25T15:57:14.344Z,28.70
2023-07-25T15:59:41.413Z,28.10
2023-07-25T16:02:09.685Z,28.20
2023-07-25T16:04:36.737Z,28.10
2023-07-25T16:07:09.890Z,28.20
2023-07-25T16:09:37.074Z,27.90
2023-07-25T16:12:04.875Z,27.90
2023-07-25T16:14:31.834Z,27.40
2023-07-25T16:16:58.967Z,26.60
2023-07-25T16:19:27.236Z,27.10
2023-07-25T16:21:54.326Z,26.90
2023-07-25T16:24:21.276Z,27.00
2023-07-25T16:26:48.161Z,26.40
2023-07-25T16:29:15.450Z,26.20
2023-07-25T16:31:42.459Z,26.40
2023-07-25T16:34:09.903Z,26.40
2023-07-25T16:36:38.302Z,26.40
2023-07-25T16:39:06.816Z,26.40
2023-07-25T16:41:34.118Z,26.30
2023-07-25T16:44:01.331Z,26.30
2023-07-25T16:46:28.378Z,26.10
2023-07-25T16:48:55.422Z,25.90
2023-07-25T16:51:23.332Z,25.70
2023-07-25T16:53:52.701Z,25.50
2023-07-25T16:56:19.754Z,24.90
2023-07-25T16:58:46.686Z,24.60
2023-07-25T17:01:13.754Z,24.70
2023-07-25T17:03:40.820Z,24.80
2023-07-25T17:06:07.972Z,24.30
2023-07-25T17:08:34.948Z,23.80
2023-07-25T17:11:05.406Z,23.40
2023-07-25T17:13:32.636Z,23.60
2023-07-25T17:15:59.803Z,23.90
2023-07-25T17:18:27.086Z,23.90
2023-07-25T17:20:54.358Z,23.80
2023-07-25T17:23:21.560Z,23.70
2023-07-25T17:25:48.506Z,23.50
2023-07-25T17:28:16.965Z,23.50
2023-07-25T17:30:44.281Z,23.40
2023-07-25T17:33:11.444Z,23.30
2023-07-25T17:35:38.623Z,23.20
2023-07-25T17:38:06.044Z,23.10
2023-07-25T17:40:33.217Z,23.00
2023-07-25T17:43:00.386Z,22.80
2023-07-25T17:45:28.790Z,22.70
2023-07-25T17:47:55.969Z,22.50
2023-07-25T17:53:15.127Z,22.10
2023-07-25T17:55:43.667Z,21.90
2023-07-25T17:58:10.850Z,21.80
2023-07-25T18:00:40.523Z,21.70
2023-07-25T18:03:08.024Z,21.60
2023-07-25T18:05:35.044Z,21.50
2023-07-25T18:08:02.227Z,21.40
2023-07-25T18:10:29.358Z,21.20
2023-07-25T18:12:56.565Z,21.10
2023-07-25T18:15:23.665Z,20.90
2023-07-25T18:17:51.967Z,20.80
2023-07-25T18:20:18.960Z,20.70
2023-07-25T18:22:46.037Z,20.60
2023-07-25T18:25:13.038Z,20.50
2023-07-25T18:27:40.491Z,20.40
2023-07-25T18:30:09.272Z,20.20
2023-07-25T18:32:36.217Z,20.10
2023-07-25T18:35:07.065Z,19.90
2023-07-25T18:37:34.160Z,19.70
2023-07-25T18:40:01.208Z,19.50
2023-07-25T18:42:28.157Z,19.40
2023-07-25T18:44:55.295Z,19.20
2023-07-25T18:47:33.790Z,19.10
2023-07-25T18:50:03.931Z,19.00
2023-07-25T18:52:31.072Z,18.90
2023-07-25T18:54:58.208Z,18.80
2023-07-25T18:57:25.372Z,18.70
2023-07-25T18:59:52.409Z,18.70
2023-07-25T19:02:19.873Z,18.60
2023-07-25T19:04:47.352Z,18.50
2023-07-25T19:10:08.258Z,18.30
2023-07-25T19:12:35.500Z,18.20
2023-07-25T19:15:02.650Z,18.10
2023-07-25T19:17:29.682Z,18.10
2023-07-25T19:19:56.941Z,18.00
2023-07-25T19:22:25.551Z,17.90
2023-07-25T19:24:52.682Z,17.80
2023-07-25T19:27:19.979Z,17.80
2023-07-25T19:29:47.025Z,17.70
2023-07-25T19:32:13.991Z,17.70
2023-07-25T19:34:41.035Z,17.60
2023-07-25T19:37:07.973Z,17.50
2023-07-25T19:39:36.467Z,17.40
2023-07-25T19:42:03.948Z,17.30
2023-07-25T19:44:31.314Z,17.30
2023-07-25T19:46:58.559Z,17.20
2023-07-25T19:49:25.753Z,17.20
2023-07-25T19:51:52.720Z,17.10
2023-07-25T19:54:20.208Z,17.10
2023-07-25T19:56:48.538Z,17.00
2023-07-25T19:59:15.894Z,17.00
2023-07-25T20:01:43.002Z,16.90
2023-07-25T20:04:09.968Z,16.80
2023-07-25T20:06:37.105Z,16.80
2023-07-25T20:09:04.610Z,16.70
2023-07-25T20:11:32.192Z,16.70
2023-07-25T20:14:00.881Z,16.60
2023-07-25T20:16:31.471Z,16.50
2023-07-25T20:19:00.510Z,16.50
2023-07-25T20:21:30.224Z,16.40
2023-07-25T20:23:59.096Z,16.40
2023-07-25T20:26:29.663Z,16.40
2023-07-25T20:28:57.776Z,16.30
2023-07-25T20:31:32.000Z,16.30
2023-07-25T20:34:02.854Z,16.20
2023-07-25T20:36:30.556Z,16.20
2023-07-25T20:39:00.432Z,16.10
2023-07-25T20:41:28.914Z,16.10
2023-07-25T20:43:55.883Z,16.10
2023-07-25T20:46:23.553Z,16.10
2023-07-25T20:48:51.813Z,16.10
2023-07-25T20:51:19.146Z,16.00
2023-07-25T20:53:49.316Z,16.00
2023-07-25T20:56:17.780Z,16.00
2023-07-25T20:58:44.791Z,15.90
2023-07-25T21:01:12.332Z,15.90
2023-07-25T21:03:41.328Z,15.90
2023-07-25T21:06:10.096Z,15.80
2023-07-25T21:08:37.402Z,15.80
2023-07-25T21:11:04.653Z,15.80
2023-07-25T21:13:31.996Z,15.80
2023-07-25T21:15:59.152Z,15.80
2023-07-25T21:18:26.138Z,15.70
2023-07-25T21:20:53.527Z,15.70
2023-07-25T21:23:22.265Z,15.70
2023-07-25T21:25:49.499Z,15.70
2023-07-25T21:28:42.184Z,15.60
2023-07-25T21:31:09.207Z,15.60
2023-07-25T21:33:36.260Z,15.50
2023-07-25T21:36:11.977Z,15.50
2023-07-25T21:38:42.617Z,15.50
2023-07-25T21:41:12.257Z,15.40
2023-07-25T21:43:42.558Z,15.40
2023-07-25T21:46:11.413Z,15.30
2023-07-25T21:48:38.467Z,15.30
2023-07-25T21:51:06.310Z,15.30
2023-07-25T21:53:34.164Z,15.30
2023-07-25T21:56:06.547Z,15.30
2023-07-25T21:58:34.009Z,15.30
2023-07-25T22:01:01.243Z,15.20
2023-07-25T22:03:33.540Z,15.20
2023-07-25T22:06:20.456Z,15.10
2023-07-25T22:08:49.854Z,15.10
2023-07-25T22:11:25.188Z,15.00
2023-07-25T22:13:52.747Z,15.00
2023-07-25T22:16:20.040Z,15.00
2023-07-25T22:18:52.483Z,15.00
2023-07-25T22:21:20.764Z,14.90
2023-07-25T22:23:49.071Z,14.90
2023-07-25T22:26:19.969Z,14.90
2023-07-25T22:28:48.422Z,14.90
2023-07-25T22:31:19.401Z,14.90
2023-07-25T22:33:46.479Z,14.80
2023-07-25T22:36:13.805Z,14.80
2023-07-25T22:38:42.664Z,14.80
2023-07-25T22:41:33.203Z,14.80
2023-07-25T22:44:01.822Z,14.70
2023-07-25T22:46:29.017Z,14.70
2023-07-25T22:48:56.190Z,14.60
2023-07-25T22:51:23.401Z,14.60
2023-07-25T22:53:50.716Z,14.60
2023-07-25T22:56:17.765Z,14.60
2023-07-25T22:58:44.964Z,14.60
2023-07-25T23:01:13.857Z,14.60
2023-07-25T23:03:41.051Z,14.60
2023-07-25T23:06:07.972Z,14.60
2023-07-25T23:08:34.986Z,14.60
2023-07-25T23:11:02.133Z,14.60
2023-07-25T23:13:29.185Z,14.50
2023-07-25T23:15:56.419Z,14.50
2023-07-25T23:18:24.908Z,14.40
2023-07-25T23:20:52.052Z,14.40
2023-07-25T23:23:19.027Z,14.40
2023-07-25T23:25:45.926Z,14.40
2023-07-25T23:28:38.006Z,14.30
2023-07-25T23:31:05.117Z,14.30
2023-07-25T23:33:33.456Z,14.30
2023-07-25T23:36:00.539Z,14.30
2023-07-25T23:38:28.570Z,14.30
2023-07-25T23:40:55.474Z,14.30
2023-07-25T23:43:22.407Z,14.30
2023-07-25T23:45:49.594Z,14.30
2023-07-25T23:48:18.162Z,14.20
2023-07-25T23:50:48.660Z,14.20
2023-07-25T23:53:15.713Z,14.20
2023-07-25T23:55:42.797Z,14.20
2023-07-25T23:58:09.917Z,14.20
